Time;durP1;ratioP1;P1;durP2;ratioP2;P2;SDS_P1;SDS_P2;PMS_P1;PMS_P2;Temp;Humidity;BMP_temperature;BMP_pressure;BME280_temperature;BME280_humidity;BME280_pressure;Samples;Min_cycle;Max_cycle;Signal;HPM_P1;HPM_P2
2022/03/03 00:01:39;;;;;;;2.65;1.30;;;4.10;64.70;;;;;;5116490;28;20028;-72
2022/03/03 00:04:05;;;;;;;3.25;1.52;;;4.10;64.70;;;;;;5080646;28;20116;-72
2022/03/03 00:06:32;;;;;;;2.70;1.23;;;4.10;64.80;;;;;;5115874;28;20123;-71
2022/03/03 00:08:57;;;;;;;2.35;1.13;;;4.00;64.70;;;;;;5115928;28;20042;-72
2022/03/03 00:11:23;;;;;;;2.72;1.42;;;4.00;64.80;;;;;;5097237;28;20047;-72
2022/03/03 00:13:49;;;;;;;2.28;1.10;;;3.90;64.80;;;;;;5116110;28;20123;-71
2022/03/03 00:16:15;;;;;;;2.63;1.27;;;3.90;64.90;;;;;;5115708;28;20113;-73
2022/03/03 00:18:41;;;;;;;3.30;1.10;;;3.90;65.00;;;;;;5115464;28;20035;-71
2022/03/03 00:21:07;;;;;;;2.50;1.20;;;3.80;65.10;;;;;;5097008;28;20055;-72
2022/03/03 00:23:33;;;;;;;2.50;1.15;;;3.90;65.30;;;;;;5115477;28;20074;-71
2022/03/03 00:25:59;;;;;;;2.03;1.08;;;3.80;65.30;;;;;;5097568;28;20036;-72
2022/03/03 00:28:26;;;;;;;1.55;1.05;;;3.80;65.40;;;;;;5096917;28;20043;-71
2022/03/03 00:30:52;;;;;;;2.42;1.15;;;3.80;65.40;;;;;;5096741;28;20047;-73
2022/03/03 00:33:17;;;;;;;2.08;1.13;;;3.70;65.40;;;;;;5115244;28;20036;-72
2022/03/03 00:35:43;;;;;;;1.98;1.20;;;3.70;65.50;;;;;;5115306;28;20551;-72
2022/03/03 00:38:10;;;;;;;1.63;1.00;;;3.70;65.60;;;;;;5097033;28;20115;-72
2022/03/03 00:40:36;;;;;;;1.25;0.90;;;3.60;65.50;;;;;;5096738;28;20130;-72
2022/03/03 00:43:04;;;;;;;2.22;1.20;;;3.60;65.60;;;;;;5115229;28;20043;-73
2022/03/03 00:45:30;;;;;;;2.63;1.35;;;3.50;65.60;;;;;;5096451;28;20416;-72
2022/03/03 00:47:56;;;;;;;1.50;0.95;;;3.50;65.80;;;;;;5096458;28;20051;-72
2022/03/03 00:50:22;;;;;;;2.65;1.30;;;3.50;65.90;;;;;;5096415;28;20054;-72
2022/03/03 00:52:48;;;;;;;2.58;1.27;;;3.40;65.90;;;;;;5079663;28;20028;-73
2022/03/03 00:55:14;;;;;;;2.40;1.15;;;3.40;66.10;;;;;;5115274;28;20042;-72
2022/03/03 00:57:39;;;;;;;3.03;1.38;;;3.30;66.20;;;;;;5114977;28;20072;-72
2022/03/03 01:00:06;;;;;;;2.65;1.42;;;3.30;66.30;;;;;;5113434;28;20510;-72
2022/03/03 01:02:33;;;;;;;2.40;1.25;;;3.30;66.20;;;;;;5063072;28;20457;-72
2022/03/03 01:04:58;;;;;;;2.30;1.25;;;3.30;66.20;;;;;;5096548;28;20043;-73
2022/03/03 01:07:24;;;;;;;3.78;1.48;;;3.30;66.20;;;;;;5115308;28;20036;-72
2022/03/03 01:09:50;;;;;;;3.22;1.35;;;3.30;66.20;;;;;;5115024;28;20070;-73
2022/03/03 01:12:16;;;;;;;2.33;1.08;;;3.20;66.20;;;;;;5114607;28;20046;-73
2022/03/03 01:14:42;;;;;;;2.08;1.10;;;3.20;66.20;;;;;;5114931;28;20043;-72
2022/03/03 01:17:07;;;;;;;2.47;1.20;;;3.20;66.40;;;;;;5096078;28;20044;-72
2022/03/03 01:19:33;;;;;;;1.50;1.05;;;3.10;66.40;;;;;;5114657;28;20047;-72
2022/03/03 01:21:59;;;;;;;1.98;1.02;;;3.10;66.50;;;;;;5114733;28;20081;-72
2022/03/03 01:24:25;;;;;;;1.80;1.00;;;3.10;66.50;;;;;;5096844;28;20089;-72
2022/03/03 01:26:50;;;;;;;2.35;1.20;;;3.10;66.60;;;;;;5096313;28;20065;-73
2022/03/03 01:29:17;;;;;;;2.30;1.10;;;3.00;66.70;;;;;;5114717;28;20051;-72
2022/03/03 01:31:43;;;;;;;1.63;1.13;;;3.00;66.70;;;;;;5095867;28;20153;-72
2022/03/03 01:34:09;;;;;;;2.35;1.02;;;3.00;66.70;;;;;;5114118;28;20044;-72
2022/03/03 01:36:35;;;;;;;2.22;1.10;;;2.90;66.70;;;;;;5096197;28;20485;-72
2022/03/03 01:39:01;;;;;;;1.42;0.90;;;2.90;66.80;;;;;;5114296;28;20477;-72
2022/03/03 01:41:27;;;;;;;2.05;1.10;;;2.90;66.80;;;;;;5095740;28;20370;-72
2022/03/03 01:43:53;;;;;;;2.40;1.13;;;2.90;66.80;;;;;;5114134;28;20051;-72
2022/03/03 01:46:19;;;;;;;1.60;0.93;;;2.90;66.80;;;;;;5114739;28;20039;-71
2022/03/03 01:48:45;;;;;;;2.05;1.23;;;2.90;66.90;;;;;;5096119;28;20044;-71
2022/03/03 01:51:11;;;;;;;2.60;1.33;;;2.90;66.90;;;;;;5114270;28;20489;-71
2022/03/03 01:53:37;;;;;;;3.45;1.50;;;2.90;67.10;;;;;;5114084;28;20417;-72
2022/03/03 01:56:04;;;;;;;2.03;1.05;;;2.90;67.10;;;;;;5113825;28;20040;-72
2022/03/03 01:58:30;;;;;;;2.38;1.20;;;2.80;67.10;;;;;;5114401;28;20040;-72
2022/03/03 02:00:55;;;;;;;1.73;0.90;;;2.70;67.10;;;;;;5095842;28;20093;-72
2022/03/03 02:03:21;;;;;;;2.05;1.27;;;2.70;67.10;;;;;;5095952;28;20043;-72
2022/03/03 02:05:47;;;;;;;1.83;1.00;;;2.70;67.20;;;;;;5095496;28;20130;-72
2022/03/03 02:08:14;;;;;;;1.45;1.05;;;2.70;67.20;;;;;;5113664;28;20050;-72
2022/03/03 02:10:40;;;;;;;3.00;1.45;;;2.60;67.90;;;;;;5094887;28;20043;-71
2022/03/03 02:13:06;;;;;;;2.28;1.20;;;2.60;67.30;;;;;;5113472;28;20085;-72
2022/03/03 02:15:32;;;;;;;1.83;1.00;;;2.60;67.40;;;;;;5095273;28;20045;-72
2022/03/03 02:17:57;;;;;;;1.65;0.90;;;2.60;67.50;;;;;;5113949;28;20122;-72
2022/03/03 02:20:25;;;;;;;1.85;1.10;;;2.50;67.50;;;;;;5095396;28;20075;-72
2022/03/03 02:22:53;;;;;;;1.52;0.80;;;2.50;67.60;;;;;;5113580;28;20039;-72
2022/03/03 02:25:20;;;;;;;1.30;0.90;;;2.50;67.70;;;;;;5095181;28;20044;-72
2022/03/03 02:27:46;;;;;;;1.00;0.70;;;2.40;67.70;;;;;;5095813;28;20038;-72
2022/03/03 02:30:14;;;;;;;2.00;1.00;;;2.40;67.90;;;;;;5095135;28;20405;-72
2022/03/03 02:32:41;;;;;;;2.80;1.27;;;2.30;67.80;;;;;;5111974;28;20039;-72
2022/03/03 02:35:07;;;;;;;1.55;0.98;;;2.30;67.90;;;;;;5113758;28;20370;-72
2022/03/03 02:37:34;;;;;;;2.33;1.05;;;2.30;68.00;;;;;;5113329;28;20526;-72
2022/03/03 02:40:01;;;;;;;2.72;1.35;;;2.30;68.10;;;;;;5095282;28;20118;-72
2022/03/03 02:42:27;;;;;;;2.25;1.02;;;2.40;68.20;;;;;;5113189;28;20039;-72
2022/03/03 02:44:53;;;;;;;2.42;1.00;;;2.20;68.10;;;;;;5113189;28;20032;-72
2022/03/03 02:47:19;;;;;;;1.38;1.00;;;2.20;68.10;;;;;;5113059;28;20431;-72
2022/03/03 02:49:44;;;;;;;1.90;1.00;;;2.20;68.20;;;;;;5112936;28;20031;-72
2022/03/03 02:52:11;;;;;;;1.50;0.85;;;2.10;68.30;;;;;;5113314;28;20036;-72
2022/03/03 02:54:37;;;;;;;2.03;1.10;;;2.10;68.40;;;;;;5094638;28;20488;-72
2022/03/03 02:59:49;;;;;;;3.10;1.10;;;2.00;68.50;;;;;;5112838;28;20054;-72
2022/03/03 03:02:14;;;;;;;2.03;1.05;;;1.90;68.50;;;;;;5094427;28;20115;-71
2022/03/03 03:04:40;;;;;;;1.98;1.10;;;1.90;68.60;;;;;;5112834;28;20043;-72
2022/03/03 03:07:07;;;;;;;1.50;0.80;;;1.90;68.70;;;;;;5094495;28;20118;-72
2022/03/03 03:09:33;;;;;;;1.67;0.98;;;1.80;68.70;;;;;;5094731;28;20451;-73
2022/03/03 03:11:59;;;;;;;2.60;0.98;;;1.80;68.80;;;;;;5094644;28;20126;-72
2022/03/03 03:14:25;;;;;;;1.90;1.00;;;1.80;68.90;;;;;;5112693;28;20027;-72
2022/03/03 03:16:51;;;;;;;2.08;1.00;;;1.80;68.90;;;;;;5095003;28;20126;-72
2022/03/03 03:19:16;;;;;;;1.33;0.75;;;1.80;68.90;;;;;;5094227;28;20469;-72
2022/03/03 03:21:42;;;;;;;1.95;0.90;;;1.80;69.00;;;;;;5111491;28;20177;-72
2022/03/03 03:24:08;;;;;;;1.10;0.80;;;1.70;69.00;;;;;;5112516;28;20073;-72
2022/03/03 03:26:34;;;;;;;1.88;0.98;;;1.70;69.00;;;;;;5112604;28;20048;-72
2022/03/03 03:28:59;;;;;;;1.85;1.00;;;1.70;69.10;;;;;;5113130;28;20441;-72
2022/03/03 03:31:26;;;;;;;2.35;1.10;;;1.70;69.10;;;;;;5113043;28;20051;-72
2022/03/03 03:33:53;;;;;;;1.65;1.05;;;1.60;69.10;;;;;;5112492;28;20031;-72
2022/03/03 03:36:19;;;;;;;1.58;1.10;;;1.60;69.10;;;;;;5112557;28;20042;-72
2022/03/03 03:38:45;;;;;;;1.75;1.00;;;1.60;69.10;;;;;;5094365;28;20122;-72
2022/03/03 03:41:12;;;;;;;1.42;1.00;;;1.60;69.10;;;;;;5094083;28;20067;-72
2022/03/03 03:43:38;;;;;;;2.50;1.15;;;1.60;69.10;;;;;;5094263;28;20445;-72
2022/03/03 03:46:04;;;;;;;1.88;0.90;;;1.70;69.10;;;;;;5112260;28;20040;-72
2022/03/03 03:48:30;;;;;;;2.67;1.50;;;1.70;69.10;;;;;;5112556;28;20046;-72
2022/03/03 03:50:56;;;;;;;2.50;1.15;;;1.60;69.10;;;;;;5094355;28;20047;-72
2022/03/03 03:53:21;;;;;;;1.90;1.05;;;1.60;69.10;;;;;;5077026;28;20516;-72
2022/03/03 03:55:47;;;;;;;1.85;1.02;;;1.60;69.20;;;;;;5112231;28;20055;-72
2022/03/03 03:58:14;;;;;;;1.27;0.82;;;1.60;69.20;;;;;;5093909;28;20043;-72
2022/03/03 04:00:40;;;;;;;1.08;0.70;;;1.50;69.20;;;;;;5111955;28;20032;-72
2022/03/03 04:03:05;;;;;;;1.55;0.85;;;1.50;69.40;;;;;;5112567;28;20377;-72
2022/03/03 04:05:31;;;;;;;1.48;0.90;;;1.50;69.40;;;;;;5093544;28;20130;-72
2022/03/03 04:07:57;;;;;;;0.88;0.70;;;1.50;69.60;;;;;;5111905;28;20043;-72
2022/03/03 04:10:22;;;;;;;1.50;0.90;;;1.40;69.60;;;;;;5111970;28;20039;-72
2022/03/03 04:12:48;;;;;;;1.58;0.80;;;1.40;69.70;;;;;;5112151;28;20043;-72
2022/03/03 04:15:14;;;;;;;1.65;0.90;;;1.40;69.80;;;;;;5112272;28;20059;-72
2022/03/03 04:17:40;;;;;;;2.20;1.13;;;1.30;69.80;;;;;;5112357;28;20473;-72
2022/03/03 04:20:07;;;;;;;1.73;1.08;;;1.30;69.80;;;;;;5111851;28;20475;-72
2022/03/03 04:22:34;;;;;;;1.92;0.90;;;1.30;69.80;;;;;;5111674;28;20071;-72
2022/03/03 04:25:00;;;;;;;1.75;1.10;;;1.30;69.90;;;;;;5093511;28;20078;-72
2022/03/03 04:27:26;;;;;;;1.92;0.90;;;1.30;70.00;;;;;;5093523;28;20505;-72
2022/03/03 04:29:52;;;;;;;1.60;0.80;;;1.20;70.00;;;;;;5112167;28;20378;-72
2022/03/03 04:32:17;;;;;;;1.98;0.93;;;1.20;70.10;;;;;;5112367;28;20119;-73
2022/03/03 04:34:43;;;;;;;1.80;0.95;;;1.20;70.10;;;;;;5097028;28;20046;-72
2022/03/03 04:37:09;;;;;;;1.95;0.93;;;1.10;70.20;;;;;;5115747;28;20038;-72
2022/03/03 04:39:35;;;;;;;1.98;1.00;;;1.10;70.20;;;;;;5115662;28;20086;-72
2022/03/03 04:42:00;;;;;;;2.17;0.93;;;1.10;70.30;;;;;;5115138;28;20043;-72
2022/03/03 04:44:26;;;;;;;1.45;0.90;;;1.00;70.30;;;;;;5115240;28;20396;-72
2022/03/03 04:46:52;;;;;;;1.35;0.70;;;1.00;70.30;;;;;;5115378;28;20042;-72
2022/03/03 04:49:18;;;;;;;1.73;0.70;;;1.00;70.30;;;;;;5096709;28;20055;-72
2022/03/03 04:51:44;;;;;;;1.50;0.80;;;1.10;70.30;;;;;;5114900;28;20438;-72
2022/03/03 04:54:10;;;;;;;1.35;0.95;;;1.00;70.30;;;;;;5115535;28;20047;-72
2022/03/03 04:56:39;;;;;;;1.88;0.88;;;1.00;70.40;;;;;;5114906;28;20071;-72
2022/03/03 04:59:05;;;;;;;1.70;0.85;;;1.00;70.50;;;;;;5096614;28;20084;-72
2022/03/03 05:01:31;;;;;;;0.95;0.52;;;0.90;70.50;;;;;;5115121;28;20042;-72
2022/03/03 05:03:57;;;;;;;1.08;0.70;;;0.90;70.50;;;;;;5096823;28;20043;-72
2022/03/03 05:06:23;;;;;;;2.10;0.88;;;0.90;70.60;;;;;;5115223;28;20077;-72
2022/03/03 05:08:48;;;;;;;1.88;1.00;;;0.80;70.60;;;;;;5114877;28;20039;-72
2022/03/03 05:11:14;;;;;;;1.27;0.80;;;0.80;70.70;;;;;;5096813;28;20108;-72
2022/03/03 05:13:40;;;;;;;1.27;0.70;;;0.80;70.80;;;;;;5114834;28;20043;-72
2022/03/03 05:16:06;;;;;;;1.70;0.90;;;0.80;70.90;;;;;;5114690;28;20080;-72
2022/03/03 05:18:32;;;;;;;1.75;0.73;;;0.70;70.80;;;;;;5096416;28;20035;-72
2022/03/03 05:20:58;;;;;;;1.48;0.95;;;0.80;70.80;;;;;;5115008;28;20046;-72
2022/03/03 05:23:24;;;;;;;2.78;0.95;;;0.80;70.90;;;;;;5114613;28;20474;-72
2022/03/03 05:25:49;;;;;;;1.60;0.90;;;0.70;70.90;;;;;;5115049;28;20040;-72
2022/03/03 05:28:15;;;;;;;1.20;0.60;;;0.70;71.00;;;;;;5114693;28;20035;-72
2022/03/03 05:30:41;;;;;;;1.92;0.90;;;0.70;71.00;;;;;;5096122;28;20039;-72
2022/03/03 05:33:07;;;;;;;1.60;0.90;;;0.60;71.00;;;;;;5114916;28;20038;-72
2022/03/03 05:35:33;;;;;;;1.17;0.60;;;0.60;71.00;;;;;;5114545;28;20529;-72
2022/03/03 05:37:59;;;;;;;1.55;0.80;;;0.60;71.10;;;;;;5079214;28;20428;-71
2022/03/03 05:40:26;;;;;;;0.85;0.60;;;0.60;71.10;;;;;;5096823;28;20075;-72
2022/03/03 05:42:52;;;;;;;1.40;0.60;;;0.60;71.20;;;;;;5096047;28;20435;-72
2022/03/03 05:45:18;;;;;;;1.25;0.80;;;0.60;71.20;;;;;;5113334;28;20104;-72
2022/03/03 05:47:46;;;;;;;1.08;0.70;;;0.70;71.20;;;;;;5096646;28;20040;-72
2022/03/03 05:50:12;;;;;;;2.58;1.23;;;0.60;71.20;;;;;;5114496;28;20058;-73
2022/03/03 05:52:38;;;;;;;1.30;0.55;;;0.70;71.20;;;;;;5096320;28;20485;-72
2022/03/03 05:55:05;;;;;;;1.55;0.80;;;0.60;71.20;;;;;;5079195;28;20036;-72
2022/03/03 05:57:36;;;;;;;1.67;0.90;;;0.60;71.30;;;;;;5114148;28;20493;-72
2022/03/03 06:00:12;;;;;;;1.58;0.80;;;0.50;71.30;;;;;;5112440;28;20073;-72
2022/03/03 06:02:49;;;;;;;0.93;0.80;;;0.50;71.30;;;;;;5112911;28;20062;-72
2022/03/03 06:05:18;;;;;;;0.95;0.73;;;0.50;71.30;;;;;;5114486;28;20109;-73
2022/03/03 06:07:49;;;;;;;1.73;0.90;;;0.50;71.40;;;;;;5096207;28;20177;-72
2022/03/03 06:10:21;;;;;;;1.73;0.95;;;0.50;71.40;;;;;;5113833;28;20050;-72
2022/03/03 06:12:48;;;;;;;1.58;0.60;;;0.50;71.50;;;;;;5113824;28;20046;-72
2022/03/03 06:15:15;;;;;;;2.00;0.95;;;0.50;71.50;;;;;;5113709;28;20052;-73
2022/03/03 06:17:44;;;;;;;1.38;0.63;;;0.50;71.50;;;;;;5113748;28;20046;-72
2022/03/03 06:20:10;;;;;;;1.60;0.80;;;0.50;71.50;;;;;;5095441;28;20046;-72
2022/03/03 06:22:36;;;;;;;1.05;0.60;;;0.50;71.50;;;;;;5095567;28;20066;-72
2022/03/03 06:25:02;;;;;;;0.90;0.73;;;0.50;71.50;;;;;;5114006;28;20043;-72
2022/03/03 06:27:30;;;;;;;1.40;0.70;;;0.50;71.60;;;;;;5113968;28;20134;-72
2022/03/03 06:29:56;;;;;;;1.00;0.55;;;0.50;71.60;;;;;;5113506;28;20039;-72
2022/03/03 06:32:22;;;;;;;1.27;0.55;;;0.40;71.60;;;;;;5096064;28;20032;-72
2022/03/03 06:34:48;;;;;;;1.52;0.70;;;0.40;71.60;;;;;;5114026;28;20481;-72
2022/03/03 06:37:14;;;;;;;1.00;0.80;;;0.40;71.60;;;;;;5113393;28;20032;-72
2022/03/03 06:39:39;;;;;;;1.52;0.88;;;0.50;71.70;;;;;;5095543;28;20036;-72
2022/03/03 06:42:05;;;;;;;1.48;0.70;;;0.50;71.70;;;;;;5113860;28;20503;-71
2022/03/03 06:44:31;;;;;;;1.60;0.95;;;0.50;71.70;;;;;;5078334;28;20126;-71
2022/03/03 06:46:57;;;;;;;1.33;0.77;;;0.60;71.70;;;;;;5095798;28;20510;-72
2022/03/03 06:49:23;;;;;;;0.90;0.65;;;0.50;71.60;;;;;;5113692;28;20047;-72
2022/03/03 06:51:51;;;;;;;1.58;0.80;;;0.50;71.50;;;;;;5113333;28;20138;-72
2022/03/03 06:54:19;;;;;;;0.95;0.70;;;0.50;71.70;;;;;;5113622;28;20039;-71
2022/03/03 06:56:52;;;;;;;1.63;0.68;;;0.50;71.70;;;;;;5111816;28;20532;-71
2022/03/03 06:59:21;;;;;;;1.85;0.80;;;0.50;71.70;;;;;;5113114;28;20485;-72
2022/03/03 07:01:48;;;;;;;1.48;0.73;;;0.60;71.60;;;;;;5078339;28;20044;-72
2022/03/03 07:04:16;;;;;;;1.02;0.77;;;0.60;71.60;;;;;;5113166;28;20039;-71
2022/03/03 07:06:43;;;;;;;1.52;0.70;;;0.60;71.60;;;;;;5094650;28;20047;-71
2022/03/03 07:09:09;;;;;;;0.73;0.55;;;0.60;71.50;;;;;;5113004;28;20047;-71
2022/03/03 07:11:42;;;;;;;1.67;0.80;;;0.70;71.40;;;;;;5112641;28;20047;-72
2022/03/03 07:14:08;;;;;;;1.20;0.68;;;0.90;71.40;;;;;;5094846;28;20043;-71
2022/03/03 07:16:42;;;;;;;1.33;0.70;;;0.80;71.20;;;;;;5094560;28;20044;-72
2022/03/03 07:19:45;;;;;;;1.02;0.55;;;0.90;71.20;;;;;;5095011;28;20378;-72
2022/03/03 07:22:33;;;;;;;1.27;0.75;;;0.90;71.20;;;;;;5095991;28;20040;-72
2022/03/03 07:25:03;;;;;;;0.90;0.60;;;1.00;71.10;;;;;;5111581;28;20040;-72
2022/03/03 07:27:29;;;;;;;1.48;0.70;;;1.10;71.00;;;;;;5113270;28;20607;-71
2022/03/03 07:29:58;;;;;;;0.93;0.60;;;1.20;70.90;;;;;;5094538;28;20063;-71
2022/03/03 07:32:53;;;;;;;1.35;0.88;;;1.30;70.70;;;;;;5113096;28;20046;-71
2022/03/03 07:35:21;;;;;;;1.40;0.57;;;1.40;70.50;;;;;;5077868;28;20405;-71
2022/03/03 07:37:56;;;;;;;1.88;0.63;;;1.50;70.30;;;;;;5112769;28;20035;-71
2022/03/03 07:40:27;;;;;;;1.08;0.68;;;1.70;70.20;;;;;;5112534;28;20092;-72
2022/03/03 07:42:54;;;;;;;1.48;0.90;;;1.70;70.00;;;;;;5078024;28;20135;-71
2022/03/03 07:45:20;;;;;;;1.95;1.10;;;1.80;69.90;;;;;;5112389;28;20039;-71
2022/03/03 07:47:49;;;;;;;2.65;1.13;;;1.90;69.80;;;;;;5112723;28;20050;-71
2022/03/03 07:50:15;;;;;;;1.60;0.90;;;2.00;69.70;;;;;;5110826;28;20097;-71
2022/03/03 07:52:48;;;;;;;1.77;1.10;;;2.10;69.60;;;;;;5112382;28;20040;-71
2022/03/03 07:55:15;;;;;;;3.13;1.30;;;2.20;69.50;;;;;;5110933;28;20035;-71
2022/03/03 07:57:52;;;;;;;2.05;1.17;;;2.30;69.40;;;;;;5112316;28;20036;-71
2022/03/03 08:00:19;;;;;;;2.50;1.25;;;2.40;69.30;;;;;;5078607;28;20481;-72
2022/03/03 08:02:47;;;;;;;2.45;1.10;;;2.50;69.20;;;;;;5094092;28;20051;-71
2022/03/03 08:05:15;;;;;;;1.80;0.95;;;2.60;69.00;;;;;;5094387;28;20044;-71
2022/03/03 08:07:44;;;;;;;1.67;0.93;;;2.80;69.60;;;;;;5112804;28;20044;-71
2022/03/03 08:10:11;;;;;;;2.05;1.10;;;2.90;68.80;;;;;;5115748;28;20049;-71
2022/03/03 08:12:39;;;;;;;1.75;1.10;;;3.00;68.70;;;;;;5115778;28;20039;-71
2022/03/03 08:15:06;;;;;;;2.25;1.10;;;3.10;68.50;;;;;;5081022;28;20069;-71
2022/03/03 08:17:34;;;;;;;2.42;1.10;;;3.30;68.50;;;;;;5116063;28;20032;-72
2022/03/03 08:20:04;;;;;;;1.52;1.08;;;3.30;68.40;;;;;;5116036;28;20043;-72
2022/03/03 08:22:30;;;;;;;1.40;0.82;;;3.40;68.30;;;;;;5097911;28;20039;-71
2022/03/03 08:24:57;;;;;;;1.67;1.10;;;3.60;68.40;;;;;;5116159;28;20055;-71
2022/03/03 08:27:25;;;;;;;2.10;1.27;;;3.70;68.30;;;;;;5115616;28;20039;-72
2022/03/03 08:29:51;;;;;;;2.80;1.20;;;3.80;68.20;;;;;;5116049;28;20100;-71
2022/03/03 08:32:19;;;;;;;2.55;1.10;;;3.80;68.10;;;;;;5080697;28;20130;-71
2022/03/03 08:35:15;;;;;;;2.42;1.30;;;4.00;68.10;;;;;;5115206;28;20043;-71
2022/03/03 08:37:43;;;;;;;1.63;1.15;;;4.00;68.00;;;;;;5114531;28;20039;-72
2022/03/03 08:40:13;;;;;;;3.38;1.40;;;4.20;67.90;;;;;;5080143;28;20036;-71
2022/03/03 08:42:44;;;;;;;1.88;1.10;;;4.30;67.90;;;;;;5115564;28;20071;-71
2022/03/03 08:45:10;;;;;;;2.17;1.10;;;4.30;67.80;;;;;;5115496;28;20075;-71
2022/03/03 08:47:38;;;;;;;1.75;1.20;;;4.40;67.90;;;;;;5115750;28;20039;-71
2022/03/03 08:50:11;;;;;;;2.20;1.13;;;4.50;67.90;;;;;;5115699;28;20093;-71
2022/03/03 08:52:42;;;;;;;2.72;1.45;;;4.60;67.80;;;;;;5095296;28;20044;-71
2022/03/03 08:55:10;;;;;;;3.50;1.60;;;4.70;67.80;;;;;;5114082;28;20046;-71
2022/03/03 08:57:37;;;;;;;1.83;1.02;;;4.70;67.70;;;;;;5097456;28;20043;-71
2022/03/03 09:00:05;;;;;;;1.80;1.10;;;4.70;67.60;;;;;;5114878;28;20031;-71
2022/03/03 09:02:32;;;;;;;1.98;1.35;;;4.80;67.70;;;;;;5114996;28;20040;-71
2022/03/03 09:04:57;;;;;;;3.05;1.52;;;4.80;67.60;;;;;;5115434;28;20045;-71
2022/03/03 09:07:23;;;;;;;1.73;1.20;;;4.90;67.60;;;;;;5097260;28;20039;-70
2022/03/03 09:09:49;;;;;;;2.45;1.50;;;5.00;67.70;;;;;;5096691;28;20044;-71
2022/03/03 09:12:15;;;;;;;2.47;1.35;;;5.00;67.70;;;;;;5114718;28;20083;-71
2022/03/03 09:14:40;;;;;;;2.97;1.75;;;5.00;67.50;;;;;;5096972;28;20129;-71
2022/03/03 09:17:06;;;;;;;3.05;1.40;;;5.10;67.50;;;;;;5115189;28;20050;-71
2022/03/03 09:19:32;;;;;;;2.75;1.60;;;5.10;67.50;;;;;;5113325;28;20039;-71
2022/03/03 09:21:58;;;;;;;2.97;1.60;;;5.20;67.60;;;;;;5115110;28;20114;-72
2022/03/03 09:24:24;;;;;;;3.33;1.55;;;5.20;67.50;;;;;;5096448;28;20043;-71
2022/03/03 09:26:51;;;;;;;2.72;1.38;;;5.20;67.30;;;;;;5096321;28;20040;-71
2022/03/03 09:29:18;;;;;;;3.25;1.63;;;5.30;67.40;;;;;;5115000;28;20059;-73
2022/03/03 09:31:45;;;;;;;2.85;1.60;;;5.40;67.30;;;;;;5114314;28;20047;-71
2022/03/03 09:34:11;;;;;;;3.00;1.70;;;5.40;67.20;;;;;;5114482;28;20133;-71
2022/03/03 09:36:37;;;;;;;3.95;1.80;;;5.50;67.30;;;;;;5115040;28;20042;-71
2022/03/03 09:39:03;;;;;;;4.20;1.98;;;5.60;67.20;;;;;;5114710;28;20497;-71
2022/03/03 09:41:29;;;;;;;3.45;1.70;;;5.70;67.10;;;;;;5114680;28;20133;-71
2022/03/03 09:43:57;;;;;;;3.33;1.40;;;5.80;66.90;;;;;;5096530;28;20128;-71
2022/03/03 09:46:24;;;;;;;2.33;1.40;;;5.80;66.80;;;;;;5114984;28;20126;-71
2022/03/03 09:48:51;;;;;;;2.75;1.42;;;5.90;66.80;;;;;;5114842;28;20047;-71
2022/03/03 09:51:17;;;;;;;2.08;1.40;;;6.00;66.80;;;;;;5114156;28;20047;-71
2022/03/03 09:53:43;;;;;;;2.28;1.40;;;6.10;66.80;;;;;;5114340;28;20039;-72
2022/03/03 09:56:09;;;;;;;2.33;1.40;;;6.10;66.60;;;;;;5096148;28;20043;-71
2022/03/03 09:58:35;;;;;;;3.10;1.65;;;6.20;66.50;;;;;;5114278;28;20044;-71
2022/03/03 10:01:02;;;;;;;1.90;1.33;;;6.30;66.50;;;;;;5095677;28;20393;-72
2022/03/03 10:03:35;;;;;;;2.92;1.40;;;6.40;66.50;;;;;;5114397;28;20094;-71
2022/03/03 10:06:02;;;;;;;2.67;1.50;;;6.40;66.30;;;;;;5112554;28;20090;-71
2022/03/03 10:08:29;;;;;;;2.30;1.30;;;6.50;66.20;;;;;;5095608;28;20047;-71
2022/03/03 10:10:57;;;;;;;2.90;1.45;;;6.50;66.20;;;;;;5113923;28;20040;-71
2022/03/03 10:13:24;;;;;;;2.95;1.45;;;6.60;66.20;;;;;;5114056;28;20488;-71
2022/03/03 10:15:57;;;;;;;2.15;1.50;;;6.60;66.10;;;;;;5095994;28;20074;-71
2022/03/03 10:18:24;;;;;;;2.30;1.40;;;6.70;66.00;;;;;;5114051;28;20043;-71
2022/03/03 10:20:54;;;;;;;3.00;1.70;;;6.80;66.00;;;;;;5095509;28;20051;-71
2022/03/03 10:23:25;;;;;;;2.67;1.30;;;6.90;65.90;;;;;;5114064;28;20568;-71
2022/03/03 10:25:53;;;;;;;2.30;1.40;;;6.90;65.80;;;;;;5113810;28;20047;-71
2022/03/03 10:28:21;;;;;;;2.83;1.50;;;7.00;65.70;;;;;;5114039;28;20039;-70
2022/03/03 10:31:08;;;;;;;2.80;1.50;;;7.00;65.60;;;;;;5114698;28;20040;-70
2022/03/03 10:33:36;;;;;;;3.72;1.92;;;7.10;65.60;;;;;;5114109;28;20040;-71
2022/03/03 10:36:10;;;;;;;2.88;1.70;;;7.20;65.50;;;;;;5113435;28;20036;-71
2022/03/03 10:38:57;;;;;;;2.75;1.60;;;7.30;65.50;;;;;;5095163;28;20038;-71
2022/03/03 10:41:39;;;;;;;3.22;1.77;;;7.30;65.30;;;;;;5113417;28;20060;-71
2022/03/03 10:44:08;;;;;;;2.53;1.40;;;7.40;65.20;;;;;;5113716;28;20093;-71
2022/03/03 10:46:35;;;;;;;2.65;1.60;;;7.50;65.10;;;;;;5078128;28;20035;-71
2022/03/03 10:49:16;;;;;;;2.75;1.52;;;7.60;64.90;;;;;;5093612;28;20036;-72
2022/03/03 10:51:42;;;;;;;2.47;1.37;;;7.70;64.80;;;;;;5095259;28;20043;-72
2022/03/03 10:54:09;;;;;;;2.05;1.25;;;7.90;64.80;;;;;;5113161;28;20044;-72
2022/03/03 10:56:43;;;;;;;2.92;1.58;;;7.90;64.60;;;;;;5095175;28;20046;-72
2022/03/03 10:59:17;;;;;;;2.17;1.33;;;8.10;64.50;;;;;;5111971;28;20039;-72
2022/03/03 11:01:45;;;;;;;2.45;1.58;;;8.10;64.30;;;;;;5113018;28;20520;-72
2022/03/03 11:04:17;;;;;;;2.75;1.38;;;8.10;64.20;;;;;;5112941;28;20062;-72
2022/03/03 11:06:43;;;;;;;3.10;1.52;;;8.30;64.20;;;;;;5094535;28;20516;-72
2022/03/03 11:09:09;;;;;;;3.63;1.80;;;8.40;64.10;;;;;;5094816;28;20047;-72
2022/03/03 11:11:35;;;;;;;2.70;1.60;;;8.40;63.90;;;;;;5094837;28;20036;-71
2022/03/03 11:14:01;;;;;;;2.60;1.63;;;8.50;63.80;;;;;;5112857;28;20126;-71
2022/03/03 11:16:27;;;;;;;3.35;1.73;;;8.60;63.70;;;;;;5112871;28;20118;-72
2022/03/03 11:18:54;;;;;;;2.95;1.63;;;8.60;63.60;;;;;;5078196;28;20078;-72
2022/03/03 11:21:20;;;;;;;3.03;1.40;;;8.70;63.60;;;;;;5111615;28;20043;-72
2022/03/03 11:23:56;;;;;;;1.98;1.27;;;8.70;63.40;;;;;;5112921;28;20036;-72
2022/03/03 11:26:26;;;;;;;1.65;1.33;;;8.90;63.50;;;;;;5111614;28;20085;-72
2022/03/03 11:29:07;;;;;;;3.03;1.50;;;9.00;63.30;;;;;;5094576;28;20467;-73
2022/03/03 11:31:34;;;;;;;2.33;1.50;;;9.10;63.10;;;;;;5112642;28;20044;-72
2022/03/03 11:34:21;;;;;;;2.42;1.38;;;9.20;63.10;;;;;;5112607;28;20547;-72
2022/03/03 11:36:48;;;;;;;2.38;1.42;;;9.30;62.80;;;;;;5094762;28;20074;-72
2022/03/03 11:39:36;;;;;;;2.03;1.30;;;9.50;62.70;;;;;;5112703;28;20036;-72
2022/03/03 11:42:21;;;;;;;2.80;1.48;;;9.60;62.40;;;;;;5112479;28;20558;-72
2022/03/03 11:44:48;;;;;;;2.72;1.50;;;9.60;62.20;;;;;;5116233;28;20519;-72
2022/03/03 11:47:33;;;;;;;2.58;1.60;;;9.70;62.20;;;;;;5116288;28;20050;-73
2022/03/03 11:50:03;;;;;;;2.92;1.70;;;9.80;62.10;;;;;;5115160;28;20084;-72
2022/03/03 11:52:29;;;;;;;2.38;1.45;;;9.80;61.90;;;;;;5116527;28;20040;-72
2022/03/03 11:54:57;;;;;;;3.30;1.83;;;10.00;61.70;;;;;;5116264;28;20078;-72
2022/03/03 11:57:32;;;;;;;3.17;1.60;;;9.90;61.60;;;;;;5098240;28;20609;-72
2022/03/03 12:00:01;;;;;;;2.40;1.60;;;10.00;61.60;;;;;;5116369;28;20073;-72
2022/03/03 12:02:29;;;;;;;2.28;1.40;;;10.10;61.50;;;;;;5080992;28;20374;-72
2022/03/03 12:05:30;;;;;;;2.45;1.40;;;10.20;61.40;;;;;;5116479;28;20039;-72
2022/03/03 12:08:01;;;;;;;;;;;10.30;61.20;;;;;;5114799;28;20081;-72
2022/03/03 12:10:28;;;;;;;2.90;1.50;;;10.40;61.10;;;;;;5080758;28;19912;-72
2022/03/03 12:13:24;;;;;;;2.20;1.33;;;10.50;60.90;;;;;;5115996;28;20027;-72
2022/03/03 12:16:21;;;;;;;1.75;1.38;;;10.60;60.70;;;;;;5115147;28;20051;-72
2022/03/03 12:19:08;;;;;;;2.40;1.40;;;10.80;60.60;;;;;;5097532;28;20038;-72
2022/03/03 12:21:40;;;;;;;2.78;1.40;;;10.80;60.30;;;;;;5100150;28;20036;-72
2022/03/03 12:24:32;;;;;;;2.55;1.50;;;10.90;60.20;;;;;;5097634;28;20044;-73
2022/03/03 12:26:59;;;;;;;2.08;1.30;;;11.00;60.00;;;;;;5114284;28;20122;-73
2022/03/03 12:29:50;;;;;;;2.15;1.35;;;11.10;60.00;;;;;;5115475;28;20039;-73
2022/03/03 12:32:38;;;;;;;2.40;1.38;;;11.10;59.80;;;;;;5115569;28;20040;-72
2022/03/03 12:35:09;;;;;;;2.70;1.40;;;11.20;59.70;;;;;;5097293;28;20508;-72
2022/03/03 12:37:42;;;;;;;2.45;1.42;;;11.20;59.60;;;;;;5097257;28;20043;-73
2022/03/03 12:40:08;;;;;;;2.55;1.40;;;11.20;59.50;;;;;;5116012;28;20541;-72
2022/03/03 12:42:34;;;;;;;1.90;1.20;;;11.40;59.60;;;;;;5115712;28;20046;-72
2022/03/03 12:45:07;;;;;;;2.20;1.30;;;11.50;59.50;;;;;;5098234;28;20040;-71
2022/03/03 12:47:45;;;;;;;2.55;1.63;;;11.50;59.20;;;;;;5115370;28;20063;-72
2022/03/03 12:50:15;;;;;;;2.63;1.40;;;11.60;58.90;;;;;;5115732;28;20396;-73
2022/03/03 12:52:54;;;;;;;2.53;1.33;;;11.60;58.80;;;;;;5097515;28;20062;-72
2022/03/03 12:55:25;;;;;;;2.53;1.40;;;11.70;58.70;;;;;;5082112;28;20035;-73
2022/03/03 12:57:51;;;;;;;3.17;1.50;;;11.70;58.70;;;;;;5115614;28;20035;-73
2022/03/03 13:00:17;;;;;;;2.20;1.48;;;11.80;58.80;;;;;;5115702;28;20157;-72
2022/03/03 13:02:59;;;;;;;1.85;1.30;;;11.80;58.60;;;;;;5115611;28;20073;-72
2022/03/03 13:05:35;;;;;;;2.03;1.40;;;11.80;58.90;;;;;;5096738;28;20393;-73